Namaka, Canada
Current Conditions -  °F | °C
As of 9:00 PM on Saturday 20 Dec 2014 (Local Time) from CYYC Reporting Station
Few Clouds Few Clouds  
Wind Chill: 21°   Ceiling: Unl
Heat Index: 27°   Visibility: 15mi
Dew Point: 19°   Wind: 5mph
Humidity: 74%   Direction: 180°S
Pressure: 29.38"   Gusts: NA
Location:  50.96°N, 113.29°W
Report Text: CYYC 210400Z 18004KT 15SM FEW220 M03/M07 A2938 RMK CI1 CI TR SLP993
Loading
Personal Weather Stations






























Interactive Weather Map New forecast layout! Learn more

10-Day Weather Forecast

Advertisements
Track Severe Weather on mobile